createdAt,value
2019-02-21T00:01:13.102Z,32.98
2019-02-21T00:04:18.673Z,32.99
2019-02-21T00:07:22.178Z,33.00
2019-02-21T00:10:30.796Z,33.01
2019-02-21T00:13:34.299Z,33.03
2019-02-21T00:16:37.794Z,32.99
2019-02-21T00:19:41.240Z,32.99
2019-02-21T00:22:44.718Z,33.02
2019-02-21T00:25:48.324Z,32.99
2019-02-21T00:28:51.815Z,32.96
2019-02-21T00:31:55.311Z,32.97
2019-02-21T00:34:58.753Z,32.98
2019-02-21T00:38:02.211Z,32.97
2019-02-21T00:41:05.821Z,32.98
2019-02-21T00:44:09.424Z,32.95
2019-02-21T00:47:14.078Z,32.97
2019-02-21T00:50:17.555Z,32.98
2019-02-21T00:53:22.282Z,32.99
2019-02-21T00:56:25.765Z,32.98
2019-02-21T00:59:30.304Z,32.96
2019-02-21T01:02:33.893Z,32.96
2019-02-21T01:05:37.496Z,32.96
2019-02-21T01:08:42.018Z,32.95
2019-02-21T01:11:46.565Z,32.97
2019-02-21T01:14:51.085Z,32.98
2019-02-21T01:17:54.577Z,32.97
2019-02-21T01:20:58.079Z,32.97
2019-02-21T01:24:01.597Z,32.99
2019-02-21T01:27:06.099Z,32.99
2019-02-21T01:30:09.622Z,32.96
2019-02-21T01:33:13.106Z,32.93
2019-02-21T01:36:17.649Z,32.99
2019-02-21T01:39:22.166Z,32.98
2019-02-21T01:42:26.690Z,32.97
2019-02-21T01:45:31.260Z,32.96
2019-02-21T01:48:34.817Z,32.95
2019-02-21T01:51:38.258Z,32.96
2019-02-21T01:54:43.741Z,32.98
2019-02-21T01:57:47.252Z,33.00
2019-02-21T02:00:50.721Z,32.97
2019-02-21T02:03:54.257Z,32.95
2019-02-21T02:06:57.692Z,32.95
2019-02-21T02:10:01.269Z,32.95
2019-02-21T02:13:04.866Z,32.95
2019-02-21T02:16:09.490Z,32.95
2019-02-21T02:19:14.033Z,32.96
2019-02-21T02:22:17.515Z,32.96
2019-02-21T02:25:21.018Z,32.96
2019-02-21T02:28:24.451Z,32.98
2019-02-21T02:31:28.883Z,32.97
2019-02-21T02:34:32.333Z,32.97
2019-02-21T02:37:35.824Z,32.96
2019-02-21T02:40:40.389Z,32.99
2019-02-21T02:43:43.864Z,32.99
2019-02-21T02:46:48.387Z,32.93
2019-02-21T02:49:51.902Z,32.94
2019-02-21T02:52:55.394Z,32.99
2019-02-21T02:55:58.889Z,32.94
2019-02-21T02:59:02.392Z,32.91
2019-02-21T03:02:05.906Z,32.93
2019-02-21T03:05:10.415Z,32.94
2019-02-21T03:08:14.016Z,32.97
2019-02-21T03:11:17.525Z,32.95
2019-02-21T03:14:20.960Z,32.95
2019-02-21T03:17:24.439Z,32.96
2019-02-21T03:20:27.930Z,32.96
2019-02-21T03:23:31.465Z,32.97
2019-02-21T03:26:34.918Z,32.95
2019-02-21T03:29:38.539Z,32.97
2019-02-21T03:32:42.125Z,32.96
2019-02-21T03:35:47.676Z,32.94
2019-02-21T03:38:51.175Z,32.95
2019-02-21T03:41:54.689Z,32.95
2019-02-21T03:44:59.234Z,32.92
2019-02-21T03:48:03.760Z,32.95
2019-02-21T03:51:07.235Z,32.93
2019-02-21T03:54:10.738Z,32.93
2019-02-21T03:57:15.350Z,32.95
2019-02-21T04:00:18.966Z,32.93
2019-02-21T04:03:22.459Z,32.94
2019-02-21T04:06:27.008Z,32.94
2019-02-21T04:09:30.492Z,32.93
2019-02-21T04:12:33.979Z,32.94
2019-02-21T04:15:37.608Z,32.93
2019-02-21T04:18:41.183Z,32.92
2019-02-21T04:21:44.733Z,32.92
2019-02-21T04:24:50.235Z,32.95
2019-02-21T04:27:54.786Z,32.95
2019-02-21T04:30:58.344Z,32.91
2019-02-21T04:34:01.966Z,32.97
2019-02-21T04:37:06.501Z,32.92
2019-02-21T04:40:13.541Z,32.93
2019-02-21T04:43:17.187Z,32.93
2019-02-21T04:46:20.700Z,32.93
2019-02-21T04:49:26.238Z,32.94
2019-02-21T04:52:29.747Z,32.93
2019-02-21T04:55:34.277Z,32.94
2019-02-21T04:58:38.792Z,32.92
2019-02-21T05:01:42.298Z,32.94
2019-02-21T05:04:46.816Z,32.94
2019-02-21T05:07:50.309Z,32.93
2019-02-21T05:10:53.827Z,32.94
2019-02-21T05:13:57.310Z,32.93
2019-02-21T05:17:00.842Z,32.92
2019-02-21T05:20:05.368Z,32.91
2019-02-21T05:23:08.865Z,32.91
2019-02-21T05:26:16.443Z,32.93
2019-02-21T05:29:19.929Z,32.94
2019-02-21T05:32:42.510Z,32.91
2019-02-21T05:36:16.831Z,32.92
2019-02-21T05:39:36.194Z,32.92
2019-02-21T05:42:51.358Z,32.91
2019-02-21T05:46:19.740Z,32.92
2019-02-21T05:49:32.766Z,32.93
2019-02-21T05:52:45.438Z,32.93
2019-02-21T05:56:00.148Z,32.92
2019-02-21T05:59:13.166Z,32.91
2019-02-21T06:02:53.180Z,32.92
2019-02-21T06:06:05.181Z,32.91
2019-02-21T06:09:19.688Z,32.90
2019-02-21T06:12:33.713Z,32.88
2019-02-21T06:15:47.996Z,32.91
2019-02-21T06:19:16.551Z,32.89
2019-02-21T06:22:33.404Z,32.92
2019-02-21T06:25:59.396Z,32.88
2019-02-21T06:29:16.636Z,32.89
2019-02-21T06:32:20.176Z,32.90
2019-02-21T06:35:23.643Z,32.94
2019-02-21T06:38:27.179Z,32.92
2019-02-21T06:41:30.654Z,32.91
2019-02-21T06:44:37.864Z,32.91
2019-02-21T06:47:40.512Z,32.92
2019-02-21T06:50:44.014Z,32.91
2019-02-21T06:53:47.507Z,32.92
2019-02-21T06:56:51.033Z,32.90
2019-02-21T06:59:54.505Z,32.89
2019-02-21T07:02:58.019Z,32.90
2019-02-21T07:06:02.556Z,32.90
2019-02-21T07:09:06.130Z,32.90
2019-02-21T07:12:10.658Z,32.88
2019-02-21T07:15:15.088Z,32.88
2019-02-21T07:18:19.815Z,32.88
2019-02-21T07:21:25.363Z,32.87
2019-02-21T07:24:29.056Z,32.88
2019-02-21T07:27:32.577Z,32.86
2019-02-21T07:30:36.009Z,32.89
2019-02-21T07:33:39.593Z,32.87
2019-02-21T07:36:43.087Z,32.86
2019-02-21T07:39:46.609Z,32.89
2019-02-21T07:42:50.089Z,32.89
2019-02-21T07:45:53.613Z,32.86
2019-02-21T07:48:57.094Z,32.87
2019-02-21T07:52:00.590Z,32.86
2019-02-21T07:55:04.087Z,32.83
2019-02-21T07:58:08.616Z,32.84
2019-02-21T08:01:12.128Z,32.83
2019-02-21T08:04:15.559Z,32.86
2019-02-21T08:07:19.103Z,32.86
2019-02-21T08:10:33.249Z,32.86
2019-02-21T08:13:27.971Z,32.86
2019-02-21T08:16:33.509Z,32.82
2019-02-21T08:19:38.353Z,32.86
2019-02-21T08:22:42.963Z,32.95
2019-02-21T08:25:46.519Z,33.05
2019-02-21T08:28:51.011Z,33.34
2019-02-21T08:31:54.488Z,33.39
2019-02-21T08:35:00.029Z,33.74
2019-02-21T08:38:03.544Z,33.80
2019-02-21T08:41:10.737Z,33.79
2019-02-21T08:44:25.404Z,33.77
2019-02-21T08:47:31.047Z,33.78
2019-02-21T08:50:34.547Z,33.72
2019-02-21T08:53:38.035Z,33.72
2019-02-21T08:56:41.552Z,33.66
2019-02-21T08:59:47.191Z,33.73
2019-02-21T09:02:50.826Z,33.69
2019-02-21T09:05:54.292Z,33.71
2019-02-21T09:08:57.782Z,33.73
2019-02-21T09:12:01.284Z,33.74
2019-02-21T09:15:08.584Z,33.75
2019-02-21T09:18:12.190Z,33.70
2019-02-21T09:21:15.690Z,33.73
2019-02-21T09:24:37.432Z,33.72
2019-02-21T09:27:26.581Z,33.69
2019-02-21T09:30:30.079Z,33.57
2019-02-21T09:33:33.701Z,33.51
2019-02-21T09:36:37.346Z,33.45
2019-02-21T09:39:41.003Z,33.41
2019-02-21T09:42:44.557Z,33.35
2019-02-21T09:45:48.185Z,33.37
2019-02-21T09:48:51.717Z,33.33
2019-02-21T09:51:55.215Z,33.33
2019-02-21T09:54:58.723Z,33.31
2019-02-21T09:58:02.332Z,33.67
2019-02-21T10:01:05.930Z,33.89
2019-02-21T10:04:09.428Z,33.81
2019-02-21T10:07:12.924Z,33.78
2019-02-21T10:10:17.939Z,34.00
2019-02-21T10:13:21.666Z,34.05
2019-02-21T10:16:26.288Z,34.09
2019-02-21T10:19:29.821Z,34.22
2019-02-21T10:22:34.318Z,34.34
2019-02-21T10:25:38.849Z,34.31
2019-02-21T10:28:44.960Z,34.69
2019-02-21T10:31:47.713Z,34.54
2019-02-21T10:34:53.029Z,34.46
2019-02-21T10:37:56.540Z,34.39
2019-02-21T10:41:00.082Z,34.32
2019-02-21T10:44:03.755Z,34.22
2019-02-21T10:47:07.335Z,34.22
2019-02-21T10:50:15.188Z,34.21
2019-02-21T10:53:18.781Z,34.04
2019-02-21T10:56:23.241Z,34.03
2019-02-21T10:59:26.773Z,34.20
2019-02-21T11:02:30.321Z,34.46
2019-02-21T11:05:34.019Z,34.58
2019-02-21T11:08:37.483Z,34.47
2019-02-21T11:11:40.990Z,34.83
2019-02-21T11:14:47.473Z,34.76
2019-02-21T11:17:49.830Z,34.98
2019-02-21T11:20:54.350Z,35.09
2019-02-21T11:23:57.851Z,34.71
2019-02-21T11:27:01.368Z,34.78
2019-02-21T11:30:06.048Z,34.59
2019-02-21T11:33:09.535Z,34.82
2019-02-21T11:36:14.110Z,34.70
2019-02-21T11:39:17.627Z,34.58
2019-02-21T11:42:21.127Z,34.63
2019-02-21T11:45:24.667Z,34.57
2019-02-21T11:48:34.056Z,34.55
2019-02-21T11:51:38.155Z,34.54
2019-02-21T11:54:42.119Z,34.51
2019-02-21T11:57:45.722Z,34.50
2019-02-21T12:00:51.338Z,34.37
2019-02-21T12:03:56.070Z,34.36
2019-02-21T12:06:59.739Z,34.38
2019-02-21T12:10:03.695Z,34.26
2019-02-21T12:13:07.287Z,34.23
2019-02-21T12:16:10.786Z,34.33
2019-02-21T12:19:15.303Z,34.46
2019-02-21T12:22:18.855Z,34.39
2019-02-21T12:25:22.353Z,34.35
2019-02-21T12:28:25.815Z,34.32
2019-02-21T12:31:29.415Z,34.29
2019-02-21T12:34:33.029Z,34.34
2019-02-21T12:37:36.506Z,34.31
2019-02-21T12:40:40.040Z,34.32
2019-02-21T12:43:44.646Z,34.32
2019-02-21T12:46:48.043Z,34.28
2019-02-21T12:49:51.547Z,34.22
2019-02-21T12:52:55.036Z,34.25
2019-02-21T12:55:58.569Z,34.21
2019-02-21T12:59:02.053Z,34.22
2019-02-21T13:02:05.639Z,34.39
2019-02-21T13:05:10.280Z,34.18
2019-02-21T13:08:14.822Z,34.78
2019-02-21T13:11:18.355Z,34.34
2019-02-21T13:14:22.835Z,34.43
2019-02-21T13:17:26.427Z,34.49
2019-02-21T13:20:30.036Z,34.17
2019-02-21T13:23:33.583Z,34.08
2019-02-21T13:26:37.052Z,34.04
2019-02-21T13:29:40.551Z,33.99
2019-02-21T13:32:44.055Z,33.95
2019-02-21T13:35:52.754Z,33.90
2019-02-21T13:38:52.905Z,33.84
2019-02-21T13:41:56.479Z,33.84
2019-02-21T13:45:00.381Z,33.75
2019-02-21T13:48:05.023Z,33.76
2019-02-21T13:51:08.535Z,34.06
2019-02-21T13:54:12.041Z,34.81
2019-02-21T13:57:16.548Z,34.36
2019-02-21T14:00:20.091Z,34.44
2019-02-21T14:03:23.658Z,34.51
2019-02-21T14:06:27.253Z,34.40
2019-02-21T14:09:30.880Z,34.51
2019-02-21T14:12:34.484Z,35.15
2019-02-21T14:15:38.136Z,35.41
2019-02-21T14:18:41.688Z,34.84
2019-02-21T14:21:45.174Z,35.88
2019-02-21T14:24:49.809Z,36.00
2019-02-21T14:27:53.518Z,35.42
2019-02-21T14:30:57.120Z,35.34
2019-02-21T14:34:00.658Z,35.50
2019-02-21T14:37:10.311Z,35.26
2019-02-21T14:40:13.849Z,35.20
2019-02-21T14:43:17.584Z,35.13
2019-02-21T14:46:22.310Z,34.90
2019-02-21T14:49:25.930Z,34.74
2019-02-21T14:52:29.398Z,34.61
2019-02-21T14:55:32.920Z,34.55
2019-02-21T14:58:37.422Z,34.48
2019-02-21T15:01:40.942Z,34.53
2019-02-21T15:04:44.540Z,34.84
2019-02-21T15:07:49.188Z,34.67
2019-02-21T15:10:52.948Z,34.80
2019-02-21T15:13:56.582Z,35.01
2019-02-21T15:17:00.216Z,34.96
2019-02-21T15:20:03.890Z,35.17
2019-02-21T15:23:07.517Z,35.04
2019-02-21T15:26:11.098Z,35.08
2019-02-21T15:29:14.687Z,35.03
2019-02-21T15:32:18.205Z,34.81
2019-02-21T15:35:21.708Z,34.73
2019-02-21T15:38:25.229Z,34.84
2019-02-21T15:41:28.717Z,35.18
2019-02-21T15:44:33.206Z,35.55
2019-02-21T15:47:37.794Z,35.77
2019-02-21T15:50:41.270Z,35.93
2019-02-21T15:53:45.790Z,35.80
2019-02-21T15:56:49.387Z,35.50
2019-02-21T15:59:53.010Z,35.72
2019-02-21T16:02:57.502Z,35.84
2019-02-21T16:06:01.043Z,35.80
2019-02-21T16:09:15.912Z,35.74
2019-02-21T16:12:14.988Z,35.66
2019-02-21T16:15:19.550Z,35.60
2019-02-21T16:18:23.241Z,35.54
2019-02-21T16:21:26.692Z,35.56
2019-02-21T16:24:30.213Z,35.45
2019-02-21T16:27:33.788Z,35.45
2019-02-21T16:30:37.414Z,35.37
2019-02-21T16:33:40.966Z,35.34
2019-02-21T16:36:44.607Z,35.37
2019-02-21T16:39:48.110Z,35.15
2019-02-21T16:42:51.617Z,35.21
2019-02-21T16:45:55.144Z,35.27
2019-02-21T16:48:58.610Z,35.30
2019-02-21T16:52:02.547Z,35.32
2019-02-21T16:55:08.844Z,35.34
2019-02-21T16:58:12.423Z,35.24
2019-02-21T17:01:15.982Z,35.12
2019-02-21T17:04:19.427Z,35.00
2019-02-21T17:07:22.942Z,34.94
2019-02-21T17:10:26.450Z,34.92
2019-02-21T17:13:30.002Z,34.89
2019-02-21T17:16:33.615Z,34.89
2019-02-21T17:19:37.124Z,34.85
2019-02-21T17:22:40.617Z,34.90
2019-02-21T17:25:44.119Z,35.41
2019-02-21T17:28:48.634Z,35.39
2019-02-21T17:31:52.143Z,35.39
2019-02-21T17:34:55.660Z,35.34
2019-02-21T17:38:00.166Z,35.33
2019-02-21T17:41:03.690Z,35.31
2019-02-21T17:44:07.159Z,35.22
2019-02-21T17:47:10.763Z,35.25
2019-02-21T17:50:15.718Z,35.19
2019-02-21T17:53:20.378Z,35.20
2019-02-21T17:56:23.947Z,35.09
2019-02-21T17:59:28.557Z,35.11
2019-02-21T18:02:32.057Z,35.08
2019-02-21T18:05:36.575Z,35.03
2019-02-21T18:08:40.136Z,35.03
2019-02-21T18:11:43.634Z,35.04
2019-02-21T18:14:47.075Z,35.03
2019-02-21T18:17:51.622Z,34.98
2019-02-21T18:20:55.136Z,34.92
2019-02-21T18:24:00.763Z,34.98
2019-02-21T18:27:04.381Z,34.94
2019-02-21T18:30:10.317Z,34.94
2019-02-21T18:33:13.899Z,34.94
2019-02-21T18:36:17.334Z,34.90
2019-02-21T18:39:20.940Z,34.89
2019-02-21T18:42:24.623Z,34.85
2019-02-21T18:45:28.242Z,34.83
2019-02-21T18:48:31.725Z,34.80
2019-02-21T18:51:35.237Z,34.83
2019-02-21T18:54:38.739Z,34.83
2019-02-21T18:57:42.246Z,34.77
2019-02-21T19:00:45.843Z,34.84
2019-02-21T19:03:49.454Z,34.74
2019-02-21T19:06:55.014Z,34.67
2019-02-21T19:09:58.560Z,34.60
2019-02-21T19:13:03.403Z,34.52
2019-02-21T19:16:07.045Z,34.56
2019-02-21T19:19:10.663Z,34.54
2019-02-21T19:22:14.214Z,34.65
2019-02-21T19:25:18.126Z,34.76
2019-02-21T19:28:22.032Z,34.83
2019-02-21T19:31:25.674Z,34.82
2019-02-21T19:34:30.356Z,34.87
2019-02-21T19:37:33.901Z,34.86
2019-02-21T19:40:37.692Z,34.82
2019-02-21T19:43:41.345Z,34.80
2019-02-21T19:46:44.925Z,34.79
2019-02-21T19:49:48.529Z,34.83
2019-02-21T19:52:53.044Z,34.80
2019-02-21T19:55:56.539Z,34.81
2019-02-21T19:59:00.167Z,34.78
2019-02-21T20:02:04.164Z,34.82
2019-02-21T20:05:08.047Z,34.90
2019-02-21T20:08:20.938Z,34.90
2019-02-21T20:11:18.255Z,34.95
2019-02-21T20:14:21.944Z,34.97
2019-02-21T20:17:25.677Z,34.95
2019-02-21T20:20:29.415Z,34.98
2019-02-21T20:23:33.229Z,35.03
2019-02-21T20:26:36.827Z,35.01
2019-02-21T20:29:40.303Z,34.98
2019-02-21T20:32:44.843Z,34.98
2019-02-21T20:35:48.310Z,35.00
2019-02-21T20:38:51.816Z,35.01
2019-02-21T20:41:55.413Z,35.04
2019-02-21T20:44:59.086Z,35.01
2019-02-21T20:48:02.519Z,34.90
2019-02-21T20:51:06.019Z,34.83
2019-02-21T20:54:09.563Z,34.76
2019-02-21T20:57:13.024Z,34.74
2019-02-21T21:00:17.144Z,34.68
2019-02-21T21:03:24.012Z,34.67
2019-02-21T21:06:28.030Z,34.61
2019-02-21T21:09:32.596Z,34.60
2019-02-21T21:12:36.059Z,34.62
2019-02-21T21:15:39.560Z,34.59
2019-02-21T21:18:43.053Z,34.57
2019-02-21T21:21:46.591Z,34.54
2019-02-21T21:24:50.069Z,34.56
2019-02-21T21:27:53.592Z,34.54
2019-02-21T21:30:57.120Z,34.54
2019-02-21T21:34:00.777Z,34.50
2019-02-21T21:37:04.256Z,34.49
2019-02-21T21:40:11.421Z,34.50
2019-02-21T21:43:14.987Z,34.53
2019-02-21T21:46:21.777Z,34.49
2019-02-21T21:49:25.264Z,34.51
2019-02-21T21:52:28.720Z,34.50
2019-02-21T21:55:32.248Z,34.48
2019-02-21T21:58:35.757Z,34.48
2019-02-21T22:01:39.235Z,34.46
2019-02-21T22:04:43.786Z,34.50
2019-02-21T22:07:49.307Z,34.51
2019-02-21T22:10:52.592Z,34.52
2019-02-21T22:13:56.218Z,34.50
2019-02-21T22:16:59.799Z,34.47
2019-02-21T22:20:03.318Z,34.50
2019-02-21T22:23:06.818Z,34.52
2019-02-21T22:26:10.312Z,34.54
2019-02-21T22:29:13.846Z,34.49
2019-02-21T22:32:17.312Z,34.50
2019-02-21T22:35:20.934Z,34.58
2019-02-21T22:38:24.533Z,34.50
2019-02-21T22:41:28.232Z,34.56
2019-02-21T22:44:31.769Z,34.61
2019-02-21T22:47:36.278Z,34.58
2019-02-21T22:50:39.773Z,34.62
2019-02-21T22:53:44.289Z,34.68
2019-02-21T22:56:47.834Z,34.62
2019-02-21T22:59:51.294Z,34.64
2019-02-21T23:02:54.791Z,34.69
2019-02-21T23:06:23.783Z,34.69
2019-02-21T23:09:28.304Z,34.74
2019-02-21T23:12:34.560Z,34.72
2019-02-21T23:15:38.081Z,34.79
2019-02-21T23:18:41.598Z,34.80
2019-02-21T23:21:45.088Z,34.75
2019-02-21T23:24:48.591Z,34.79
2019-02-21T23:27:52.084Z,34.75
2019-02-21T23:30:55.746Z,34.84
2019-02-21T23:34:00.708Z,34.76
2019-02-21T23:37:04.316Z,34.81
2019-02-21T23:40:07.754Z,34.86
2019-02-21T23:43:11.269Z,34.85
2019-02-21T23:46:14.964Z,34.81
2019-02-21T23:49:19.950Z,34.87
2019-02-21T23:52:23.535Z,34.83
2019-02-21T23:55:27.218Z,34.81
2019-02-21T23:58:30.691Z,34.76
